createdAt,value
2023-01-12T00:02:12.473Z,3.58
2023-01-12T00:04:45.014Z,3.50
2023-01-12T00:07:18.320Z,3.49
2023-01-12T00:09:50.271Z,3.45
2023-01-12T00:12:22.298Z,3.59
2023-01-12T00:14:54.295Z,3.31
2023-01-12T00:17:26.263Z,3.58
2023-01-12T00:19:58.278Z,3.47
2023-01-12T00:22:30.216Z,3.51
2023-01-12T00:25:02.161Z,3.44
2023-01-12T00:27:34.109Z,3.40
2023-01-12T00:30:08.023Z,3.35
2023-01-12T00:32:39.983Z,3.47
2023-01-12T00:35:11.968Z,3.40
2023-01-12T00:37:43.898Z,3.38
2023-01-12T00:40:16.977Z,3.15
2023-01-12T00:43:07.459Z,3.38
2023-01-12T00:45:39.378Z,3.25
2023-01-12T00:48:13.103Z,3.23
2023-01-12T00:50:46.784Z,3.13
2023-01-12T00:53:18.801Z,3.19
2023-01-12T00:55:50.714Z,3.41
2023-01-12T00:58:22.705Z,3.35
2023-01-12T01:00:55.012Z,3.36
2023-01-12T01:03:27.863Z,3.31
2023-01-12T01:06:07.928Z,3.43
2023-01-12T01:08:39.876Z,3.41
2023-01-12T01:11:13.550Z,3.53
2023-01-12T01:13:45.905Z,3.46
2023-01-12T01:16:18.473Z,3.39
2023-01-12T01:18:50.449Z,3.28
2023-01-12T01:21:22.664Z,3.10
2023-01-12T01:23:54.735Z,3.30
2023-01-12T01:26:26.977Z,3.48
2023-01-12T01:28:59.039Z,3.45
2023-01-12T01:31:31.196Z,3.28
2023-01-12T01:34:03.462Z,3.46
2023-01-12T01:36:35.446Z,3.47
2023-01-12T01:39:07.395Z,3.25
2023-01-12T01:41:39.709Z,3.46
2023-01-12T01:44:30.638Z,3.59
2023-01-12T01:47:17.916Z,3.61
2023-01-12T01:49:54.505Z,3.61
2023-01-12T01:52:33.197Z,3.15
2023-01-12T01:55:08.320Z,3.62
2023-01-12T01:57:49.883Z,3.59
2023-01-12T02:00:23.384Z,3.53
2023-01-12T02:02:56.213Z,3.48
2023-01-12T02:05:29.169Z,3.64
2023-01-12T02:08:24.182Z,3.65
2023-01-12T02:10:58.480Z,3.63
2023-01-12T02:13:49.926Z,3.38
2023-01-12T02:16:29.455Z,3.44
2023-01-12T02:19:48.893Z,3.56
2023-01-12T02:22:39.425Z,3.48
2023-01-12T02:25:37.864Z,3.56
2023-01-12T02:28:31.234Z,3.55
2023-01-12T02:31:40.761Z,3.57
2023-01-12T02:34:33.891Z,3.56
2023-01-12T02:37:20.255Z,3.56
2023-01-12T02:40:37.818Z,3.58
2023-01-12T02:43:17.190Z,3.46
2023-01-12T02:46:12.187Z,3.40
2023-01-12T02:48:53.077Z,3.64
2023-01-12T02:51:35.237Z,3.66
2023-01-12T02:54:16.441Z,3.48
2023-01-12T02:56:52.360Z,3.70
2023-01-12T02:59:53.823Z,3.63
2023-01-12T03:02:28.095Z,3.57
2023-01-12T03:05:00.040Z,3.65
2023-01-12T03:07:47.373Z,3.59
2023-01-12T03:10:28.008Z,3.69
2023-01-12T03:13:06.426Z,3.59
2023-01-12T03:15:46.179Z,3.56
2023-01-12T03:18:47.029Z,3.60
2023-01-12T03:21:18.922Z,3.53
2023-01-12T03:24:01.357Z,3.52
2023-01-12T03:26:37.539Z,3.55
2023-01-12T03:29:09.495Z,3.64
2023-01-12T03:31:42.645Z,3.58
2023-01-12T03:34:15.137Z,3.56
2023-01-12T03:37:10.255Z,3.56
2023-01-12T03:40:01.417Z,3.65
2023-01-12T03:43:07.094Z,3.55
2023-01-12T03:46:01.907Z,3.72
2023-01-12T03:48:46.952Z,3.77
2023-01-12T03:51:26.965Z,3.82
2023-01-12T03:53:59.808Z,3.65
2023-01-12T03:56:35.481Z,3.85
2023-01-12T03:59:09.874Z,3.63
2023-01-12T04:01:43.662Z,3.80
2023-01-12T04:04:16.075Z,3.92
2023-01-12T04:06:48.210Z,3.73
2023-01-12T04:09:20.386Z,3.75
2023-01-12T04:12:10.474Z,3.68
2023-01-12T04:14:47.821Z,3.94
2023-01-12T04:17:24.528Z,3.76
2023-01-12T04:19:56.501Z,3.97
2023-01-12T04:22:43.368Z,4.01
2023-01-12T04:25:20.740Z,3.87
2023-01-12T04:28:01.979Z,4.15
2023-01-12T04:30:35.370Z,4.22
2023-01-12T04:33:08.441Z,4.21
2023-01-12T04:35:40.632Z,4.16
2023-01-12T04:38:12.505Z,4.22
2023-01-12T04:40:44.471Z,4.27
2023-01-12T04:43:16.851Z,4.18
2023-01-12T04:45:48.860Z,4.31
2023-01-12T04:48:20.869Z,4.31
2023-01-12T04:50:53.337Z,4.35
2023-01-12T04:53:25.436Z,4.38
2023-01-12T04:55:57.744Z,4.33
2023-01-12T04:58:29.754Z,4.38
2023-01-12T05:01:13.434Z,4.37
2023-01-12T05:03:45.991Z,4.31
2023-01-12T05:06:18.008Z,4.30
2023-01-12T05:09:08.835Z,4.34
2023-01-12T05:11:40.616Z,4.42
2023-01-12T05:14:13.172Z,4.36
2023-01-12T05:16:45.205Z,4.59
2023-01-12T05:19:17.232Z,4.51
2023-01-12T05:21:49.254Z,4.47
2023-01-12T05:24:21.217Z,4.58
2023-01-12T05:26:53.173Z,4.52
2023-01-12T05:29:25.143Z,4.47
2023-01-12T05:31:57.236Z,4.20
2023-01-12T05:34:29.176Z,4.64
2023-01-12T05:37:01.284Z,4.62
2023-01-12T05:39:33.217Z,4.58
2023-01-12T05:42:24.012Z,4.46
2023-01-12T05:44:55.853Z,4.65
2023-01-12T05:47:27.784Z,4.58
2023-01-12T05:49:59.831Z,4.66
2023-01-12T05:52:31.843Z,4.57
2023-01-12T05:55:04.443Z,4.57
2023-01-12T05:57:36.404Z,4.59
2023-01-12T06:00:09.164Z,4.71
2023-01-12T06:02:41.129Z,4.53
2023-01-12T06:05:13.371Z,4.82
2023-01-12T06:07:45.350Z,4.80
2023-01-12T06:10:17.751Z,4.83
2023-01-12T06:13:11.466Z,4.88
2023-01-12T06:15:43.449Z,4.73
2023-01-12T06:18:15.454Z,4.85
2023-01-12T06:20:47.394Z,4.81
2023-01-12T06:23:19.369Z,4.73
2023-01-12T06:25:51.294Z,4.68
2023-01-12T06:28:23.410Z,4.84
2023-01-12T06:30:57.213Z,4.88
2023-01-12T06:33:29.711Z,4.93
2023-01-12T06:36:02.058Z,4.79
2023-01-12T06:38:37.807Z,4.88
2023-01-12T06:41:30.964Z,4.90
2023-01-12T06:44:02.942Z,4.78
2023-01-12T06:46:34.969Z,4.86
2023-01-12T06:49:06.925Z,4.88
2023-01-12T06:51:38.878Z,5.01
2023-01-12T06:54:10.975Z,4.96
2023-01-12T06:56:42.958Z,4.60
2023-01-12T06:59:15.008Z,4.90
2023-01-12T07:01:47.149Z,4.90
2023-01-12T07:04:19.401Z,5.00
2023-01-12T07:06:55.570Z,5.07
2023-01-12T07:09:27.505Z,5.08
2023-01-12T07:11:59.614Z,5.10
2023-01-12T07:14:31.954Z,5.24
2023-01-12T07:17:04.008Z,5.14
2023-01-12T07:19:35.952Z,5.27
2023-01-12T07:22:08.127Z,5.12
2023-01-12T07:24:40.121Z,5.24
2023-01-12T07:27:12.048Z,5.02
2023-01-12T07:29:44.040Z,5.21
2023-01-12T07:32:16.049Z,5.15
2023-01-12T07:34:47.946Z,5.13
2023-01-12T07:37:19.967Z,5.09
2023-01-12T07:39:51.928Z,5.01
2023-01-12T07:42:23.854Z,5.19
2023-01-12T07:44:55.869Z,5.25
2023-01-12T07:47:28.417Z,5.28
2023-01-12T07:50:00.350Z,5.36
2023-01-12T07:52:32.314Z,5.50
2023-01-12T07:55:04.651Z,5.11
2023-01-12T07:57:37.631Z,5.45
2023-01-12T08:00:10.411Z,5.53
2023-01-12T08:02:42.408Z,5.42
2023-01-12T08:05:14.356Z,5.39
2023-01-12T08:07:46.652Z,5.57
2023-01-12T08:10:18.791Z,5.67
2023-01-12T08:12:51.558Z,5.69
2023-01-12T08:15:25.557Z,5.83
2023-01-12T08:18:05.857Z,5.83
2023-01-12T08:20:38.210Z,5.82
2023-01-12T08:23:21.275Z,5.80
2023-01-12T08:25:58.813Z,5.95
2023-01-12T08:28:43.616Z,6.03
2023-01-12T08:33:53.524Z,6.08
2023-01-12T08:36:26.679Z,5.96
2023-01-12T08:38:58.864Z,5.83
2023-01-12T08:41:34.899Z,5.97
2023-01-12T08:44:11.217Z,6.02
2023-01-12T08:46:48.379Z,6.04
2023-01-12T08:49:24.529Z,5.96
2023-01-12T08:51:57.029Z,6.01
2023-01-12T08:54:29.144Z,5.93
2023-01-12T08:57:01.113Z,5.91
2023-01-12T08:59:33.194Z,5.93
2023-01-12T09:02:06.030Z,6.03
2023-01-12T09:04:40.526Z,6.02
2023-01-12T09:07:13.062Z,6.02
2023-01-12T09:09:44.998Z,5.94
2023-01-12T09:12:17.017Z,5.96
2023-01-12T09:14:49.349Z,5.79
2023-01-12T09:17:23.340Z,5.74
2023-01-12T09:19:55.301Z,5.62
2023-01-12T09:22:28.977Z,5.69
2023-01-12T09:25:00.940Z,5.74
2023-01-12T09:27:32.957Z,5.68
2023-01-12T09:30:06.913Z,5.60
2023-01-12T09:32:38.868Z,5.68
2023-01-12T09:35:10.785Z,5.72
2023-01-12T09:37:44.080Z,5.83
2023-01-12T09:40:16.878Z,5.92
2023-01-12T09:43:10.307Z,5.96
2023-01-12T09:46:03.090Z,6.00
2023-01-12T09:48:35.024Z,6.12
2023-01-12T09:51:23.650Z,6.19
2023-01-12T09:53:55.730Z,6.16
2023-01-12T09:56:52.711Z,6.34
2023-01-12T09:59:52.001Z,6.30
2023-01-12T10:02:26.288Z,6.21
2023-01-12T10:04:58.779Z,6.29
2023-01-12T10:07:30.718Z,6.37
2023-01-12T10:10:02.715Z,6.60
2023-01-12T10:12:43.272Z,6.67
2023-01-12T10:15:45.171Z,6.70
2023-01-12T10:18:31.142Z,6.71
2023-01-12T10:21:03.258Z,6.69
2023-01-12T10:23:35.218Z,6.67
2023-01-12T10:26:23.495Z,6.53
2023-01-12T10:28:56.604Z,6.57
2023-01-12T10:31:28.634Z,6.49
2023-01-12T10:34:03.638Z,6.60
2023-01-12T10:36:43.737Z,6.62
2023-01-12T10:39:35.736Z,6.66
2023-01-12T10:42:10.576Z,6.62
2023-01-12T10:44:42.529Z,6.53
2023-01-12T10:47:18.621Z,6.75
2023-01-12T10:50:19.206Z,6.79
2023-01-12T10:53:01.474Z,6.95
2023-01-12T10:55:40.043Z,6.92
2023-01-12T10:58:26.242Z,6.98
2023-01-12T11:00:58.982Z,7.13
2023-01-12T11:03:32.693Z,7.17
2023-01-12T11:06:33.307Z,7.26
2023-01-12T11:09:23.159Z,7.25
2023-01-12T11:12:00.752Z,7.25
2023-01-12T11:14:38.339Z,7.08
2023-01-12T11:17:37.206Z,7.12
2023-01-12T11:20:18.257Z,6.65
2023-01-12T11:22:55.056Z,6.82
2023-01-12T11:25:30.754Z,6.58
2023-01-12T11:28:12.495Z,6.81
2023-01-12T11:30:52.782Z,7.28
2023-01-12T11:33:44.624Z,7.25
2023-01-12T11:36:23.000Z,7.21
2023-01-12T11:39:02.448Z,7.19
2023-01-12T11:41:34.773Z,7.24
2023-01-12T11:44:26.899Z,6.99
2023-01-12T11:47:13.372Z,7.13
2023-01-12T11:50:08.901Z,7.06
2023-01-12T11:52:41.282Z,7.13
2023-01-12T11:55:16.412Z,7.10
2023-01-12T11:58:08.771Z,7.21
2023-01-12T12:01:09.786Z,7.03
2023-01-12T12:04:20.557Z,7.19
2023-01-12T12:07:05.987Z,7.20
2023-01-12T12:10:04.049Z,7.22
2023-01-12T12:13:00.399Z,7.26
2023-01-12T12:15:35.371Z,7.16
2023-01-12T12:18:34.524Z,7.26
2023-01-12T12:21:24.402Z,7.33
2023-01-12T12:24:10.257Z,7.35
2023-01-12T12:26:48.503Z,7.32
2023-01-12T12:29:35.717Z,7.37
2023-01-12T12:32:28.858Z,7.48
2023-01-12T12:35:31.465Z,7.34
2023-01-12T12:38:09.344Z,7.43
2023-01-12T12:41:23.000Z,7.42
2023-01-12T12:44:43.211Z,7.26
2023-01-12T12:47:42.246Z,7.38
2023-01-12T12:50:35.886Z,7.44
2023-01-12T12:53:51.299Z,7.44
2023-01-12T12:56:26.682Z,7.39
2023-01-12T12:59:03.378Z,7.33
2023-01-12T13:01:39.867Z,7.30
2023-01-12T13:04:13.226Z,7.28
2023-01-12T13:06:48.720Z,7.11
2023-01-12T13:09:20.650Z,7.19
2023-01-12T13:12:19.005Z,7.25
2023-01-12T13:15:37.099Z,7.21
2023-01-12T13:18:43.163Z,7.11
2023-01-12T13:21:27.055Z,7.23
2023-01-12T13:24:11.578Z,7.26
2023-01-12T13:26:45.200Z,7.27
2023-01-12T13:29:29.250Z,7.33
2023-01-12T13:32:40.653Z,7.27
2023-01-12T13:35:33.865Z,7.29
2023-01-12T13:38:43.960Z,7.25
2023-01-12T13:41:51.816Z,7.23
2023-01-12T13:44:30.041Z,7.07
2023-01-12T13:47:08.424Z,7.06
2023-01-12T13:49:48.172Z,7.05
2023-01-12T13:52:27.722Z,6.98
2023-01-12T13:55:00.358Z,6.77
2023-01-12T13:57:32.571Z,6.89
2023-01-12T14:00:19.428Z,6.87
2023-01-12T14:02:52.942Z,6.79
2023-01-12T14:05:46.812Z,6.81
2023-01-12T14:09:05.339Z,6.62
2023-01-12T14:12:01.492Z,6.70
2023-01-12T14:15:23.307Z,6.63
2023-01-12T14:18:07.489Z,6.56
2023-01-12T14:20:49.102Z,6.33
2023-01-12T14:23:26.817Z,6.42
2023-01-12T14:26:11.120Z,6.39
2023-01-12T14:28:48.543Z,6.33
2023-01-12T14:31:35.739Z,6.27
2023-01-12T14:34:32.866Z,6.23
2023-01-12T14:37:17.973Z,6.14
2023-01-12T14:39:49.991Z,6.13
2023-01-12T14:42:41.438Z,6.09
2023-01-12T14:45:43.901Z,6.02
2023-01-12T14:48:26.229Z,5.99
2023-01-12T14:51:02.860Z,5.91
2023-01-12T14:53:39.837Z,5.86
2023-01-12T14:56:27.223Z,5.70
2023-01-12T14:59:08.882Z,5.64
2023-01-12T15:01:42.449Z,5.69
2023-01-12T15:04:24.086Z,5.68
2023-01-12T15:07:06.465Z,5.53
2023-01-12T15:09:56.941Z,5.50
2023-01-12T15:12:28.916Z,5.49
2023-01-12T15:15:24.103Z,5.41
2023-01-12T15:18:14.439Z,5.32
2023-01-12T15:21:05.561Z,5.27
2023-01-12T15:23:56.193Z,5.26
2023-01-12T15:26:28.095Z,5.18
2023-01-12T15:29:00.167Z,5.17
2023-01-12T15:31:35.217Z,5.19
2023-01-12T15:34:07.324Z,5.06
2023-01-12T15:36:39.358Z,4.97
2023-01-12T15:39:14.902Z,5.08
2023-01-12T15:42:05.399Z,4.95
2023-01-12T15:44:38.838Z,4.93
2023-01-12T15:47:15.852Z,4.89
2023-01-12T15:49:49.800Z,4.77
2023-01-12T15:52:24.036Z,4.86
2023-01-12T15:54:56.374Z,4.75
2023-01-12T15:57:28.341Z,4.84
2023-01-12T16:00:00.323Z,4.76
2023-01-12T16:02:38.235Z,4.70
2023-01-12T16:05:11.579Z,4.64
2023-01-12T16:07:44.011Z,4.69
2023-01-12T16:10:17.066Z,4.42
2023-01-12T16:12:49.023Z,4.62
2023-01-12T16:15:24.292Z,4.59
2023-01-12T16:17:56.486Z,4.51
2023-01-12T16:20:28.437Z,4.51
2023-01-12T16:23:00.413Z,4.51
2023-01-12T16:25:32.360Z,4.37
2023-01-12T16:28:04.541Z,4.46
2023-01-12T16:30:44.219Z,4.56
2023-01-12T16:33:18.157Z,4.52
2023-01-12T16:35:50.548Z,4.44
2023-01-12T16:38:22.528Z,4.38
2023-01-12T16:40:55.197Z,4.42
2023-01-12T16:43:29.958Z,4.31
2023-01-12T16:46:03.767Z,4.44
2023-01-12T16:48:36.555Z,4.25
2023-01-12T16:51:14.530Z,4.38
2023-01-12T16:53:47.760Z,4.30
2023-01-12T16:56:19.719Z,4.32
2023-01-12T16:58:52.248Z,4.27
2023-01-12T17:01:25.433Z,4.32
2023-01-12T17:03:58.495Z,4.24
2023-01-12T17:06:30.832Z,4.23
2023-01-12T17:09:03.318Z,4.20
2023-01-12T17:11:35.636Z,4.19
2023-01-12T17:14:25.553Z,4.25
2023-01-12T17:17:01.674Z,4.22
2023-01-12T17:19:35.466Z,4.21
2023-01-12T17:22:08.355Z,4.16
2023-01-12T17:24:40.820Z,4.18
2023-01-12T17:27:12.871Z,4.19
2023-01-12T17:29:47.246Z,4.07
2023-01-12T17:32:19.240Z,3.99
2023-01-12T17:34:51.485Z,4.02
2023-01-12T17:37:23.474Z,3.99
2023-01-12T17:39:55.539Z,4.07
2023-01-12T17:42:46.379Z,3.96
2023-01-12T17:45:18.233Z,4.08
2023-01-12T17:47:50.245Z,4.00
2023-01-12T17:50:22.232Z,3.97
2023-01-12T17:52:54.193Z,3.85
2023-01-12T17:55:26.449Z,3.75
2023-01-12T17:57:58.326Z,3.95
2023-01-12T18:00:30.937Z,3.94
2023-01-12T18:03:03.407Z,3.76
2023-01-12T18:05:35.393Z,3.90
2023-01-12T18:08:07.306Z,3.97
2023-01-12T18:10:39.194Z,3.76
2023-01-12T18:13:13.015Z,3.70
2023-01-12T18:15:44.929Z,3.78
2023-01-12T18:18:16.864Z,3.78
2023-01-12T18:20:52.433Z,3.66
2023-01-12T18:23:24.306Z,3.61
2023-01-12T18:26:02.647Z,3.87
2023-01-12T18:28:34.754Z,3.78
2023-01-12T18:31:10.264Z,3.92
2023-01-12T18:33:43.165Z,3.54
2023-01-12T18:36:18.636Z,3.69
2023-01-12T18:38:52.442Z,3.91
2023-01-12T18:41:42.980Z,3.83
2023-01-12T18:44:14.945Z,3.90
2023-01-12T18:47:09.938Z,3.77
2023-01-12T18:49:42.322Z,3.71
2023-01-12T18:52:33.770Z,3.82
2023-01-12T18:55:06.279Z,3.74
2023-01-12T18:57:38.216Z,3.80
2023-01-12T19:00:16.893Z,3.52
2023-01-12T19:02:48.763Z,3.61
2023-01-12T19:05:37.269Z,3.61
2023-01-12T19:08:44.682Z,3.68
2023-01-12T19:11:16.741Z,3.59
2023-01-12T19:14:07.102Z,3.58
2023-01-12T19:16:57.706Z,3.59
2023-01-12T19:19:31.484Z,3.75
2023-01-12T19:22:22.551Z,3.70
2023-01-12T19:25:13.247Z,3.78
2023-01-12T19:28:03.976Z,3.81
2023-01-12T19:30:37.184Z,3.84
2023-01-12T19:33:10.198Z,3.55
2023-01-12T19:35:46.307Z,3.70
2023-01-12T19:38:18.305Z,3.84
2023-01-12T19:40:54.833Z,3.82
2023-01-12T19:43:29.410Z,3.70
2023-01-12T19:46:03.084Z,3.81
2023-01-12T19:48:35.087Z,3.58
2023-01-12T19:51:10.862Z,3.73
2023-01-12T19:53:43.076Z,3.59
2023-01-12T19:56:15.352Z,3.74
2023-01-12T19:58:47.563Z,3.71
2023-01-12T20:01:24.036Z,3.70
2023-01-12T20:03:56.102Z,3.61
2023-01-12T20:06:28.088Z,3.67
2023-01-12T20:09:00.310Z,3.65
2023-01-12T20:11:32.306Z,3.51
2023-01-12T20:14:04.482Z,3.58
2023-01-12T20:16:36.531Z,3.58
2023-01-12T20:19:08.459Z,3.57
2023-01-12T20:21:40.450Z,3.59
2023-01-12T20:24:12.482Z,3.57
2023-01-12T20:26:44.433Z,3.51
2023-01-12T20:29:16.677Z,3.42
2023-01-12T20:31:50.373Z,3.47
2023-01-12T20:34:22.603Z,3.49
2023-01-12T20:36:54.524Z,3.52
2023-01-12T20:39:27.162Z,3.44
2023-01-12T20:41:59.169Z,3.50
2023-01-12T20:44:31.476Z,3.49
2023-01-12T20:47:03.708Z,3.51
2023-01-12T20:49:35.744Z,3.42
2023-01-12T20:52:07.598Z,3.46
2023-01-12T20:54:39.516Z,3.47
2023-01-12T20:57:11.359Z,3.35
2023-01-12T20:59:43.295Z,3.43
2023-01-12T21:02:19.835Z,3.33
2023-01-12T21:04:52.036Z,3.10
2023-01-12T21:07:24.260Z,3.45
2023-01-12T21:09:56.728Z,3.39
2023-01-12T21:12:29.203Z,3.15
2023-01-12T21:15:07.126Z,3.08
2023-01-12T21:17:39.416Z,3.02
2023-01-12T21:20:12.080Z,3.28
2023-01-12T21:22:44.811Z,3.38
2023-01-12T21:25:16.827Z,3.44
2023-01-12T21:27:48.918Z,3.38
2023-01-12T21:30:21.499Z,3.44
2023-01-12T21:32:55.421Z,3.51
2023-01-12T21:35:27.394Z,3.34
2023-01-12T21:37:59.605Z,3.42
2023-01-12T21:40:32.353Z,3.50
2023-01-12T21:43:10.452Z,3.32
2023-01-12T21:45:44.666Z,3.31
2023-01-12T21:48:18.368Z,3.45
2023-01-12T21:50:50.716Z,3.45
2023-01-12T21:53:23.787Z,3.45
2023-01-12T21:56:01.035Z,3.40
2023-01-12T21:58:35.413Z,3.53
2023-01-12T22:01:13.309Z,3.20
2023-01-12T22:03:45.439Z,3.45
2023-01-12T22:06:17.478Z,3.50
2023-01-12T22:08:49.520Z,3.55
2023-01-12T22:11:21.428Z,3.50
2023-01-12T22:13:53.392Z,3.69
2023-01-12T22:16:25.499Z,3.70
2023-01-12T22:18:57.567Z,3.64
2023-01-12T22:21:29.830Z,3.85
2023-01-12T22:24:01.797Z,3.78
2023-01-12T22:26:33.733Z,3.86
2023-01-12T22:29:05.830Z,3.94
2023-01-12T22:31:37.862Z,3.96
2023-01-12T22:34:13.097Z,3.88
2023-01-12T22:36:45.063Z,3.92
2023-01-12T22:39:17.195Z,3.91
2023-01-12T22:41:51.103Z,4.03
2023-01-12T22:44:26.382Z,4.09
2023-01-12T22:46:58.359Z,4.06
2023-01-12T22:49:30.389Z,4.05
2023-01-12T22:52:03.137Z,4.14
2023-01-12T22:54:35.112Z,4.08
2023-01-12T22:57:09.379Z,3.77
2023-01-12T22:59:41.998Z,4.04
2023-01-12T23:02:32.620Z,4.07
2023-01-12T23:05:04.808Z,4.15
2023-01-12T23:07:36.877Z,4.08
2023-01-12T23:10:09.448Z,3.98
2023-01-12T23:12:41.527Z,4.10
2023-01-12T23:15:13.561Z,4.05
2023-01-12T23:17:45.555Z,3.94
2023-01-12T23:20:17.675Z,4.05
2023-01-12T23:22:49.666Z,4.04
2023-01-12T23:25:21.856Z,3.92
2023-01-12T23:27:54.112Z,3.97
2023-01-12T23:30:30.960Z,3.94
2023-01-12T23:33:04.725Z,3.83
2023-01-12T23:35:39.749Z,3.88
2023-01-12T23:38:16.645Z,4.00
2023-01-12T23:40:48.584Z,3.76
2023-01-12T23:43:21.350Z,3.68
2023-01-12T23:45:53.459Z,3.65
2023-01-12T23:48:26.582Z,3.87
2023-01-12T23:50:59.882Z,3.96
2023-01-12T23:53:31.989Z,3.89
2023-01-12T23:56:09.659Z,3.81
2023-01-12T23:58:42.538Z,3.72
